sensor_id;sensor_type;location;lat;lon;timestamp;P1;P2;P0
12542;PMS3003;6337;49.556;25.594;2023-02-10T00:01:30;40.47;19.05;
12542;PMS3003;6337;49.556;25.594;2023-02-10T00:03:58;45.30;19.67;
12542;PMS3003;6337;49.556;25.594;2023-02-10T00:06:27;43.58;21.73;
12542;PMS3003;6337;49.556;25.594;2023-02-10T00:08:57;52.60;23.63;
12542;PMS3003;6337;49.556;25.594;2023-02-10T00:11:26;39.97;22.15;
12542;PMS3003;6337;49.556;25.594;2023-02-10T00:14:13;41.38;23.50;
12542;PMS3003;6337;49.556;25.594;2023-02-10T00:16:42;36.50;22.50;
12542;PMS3003;6337;49.556;25.594;2023-02-10T00:19:10;37.15;21.48;
12542;PMS3003;6337;49.556;25.594;2023-02-10T00:21:38;47.75;22.83;
12542;PMS3003;6337;49.556;25.594;2023-02-10T00:24:06;49.58;23.75;
12542;PMS3003;6337;49.556;25.594;2023-02-10T00:26:35;37.30;21.02;
12542;PMS3003;6337;49.556;25.594;2023-02-10T00:29:03;46.55;25.70;
12542;PMS3003;6337;49.556;25.594;2023-02-10T00:31:39;54.80;26.13;
12542;PMS3003;6337;49.556;25.594;2023-02-10T00:34:09;43.30;25.45;
12542;PMS3003;6337;49.556;25.594;2023-02-10T00:36:37;64.50;26.85;
12542;PMS3003;6337;49.556;25.594;2023-02-10T00:39:05;62.75;28.63;
12542;PMS3003;6337;49.556;25.594;2023-02-10T00:41:33;52.22;27.33;
12542;PMS3003;6337;49.556;25.594;2023-02-10T00:44:02;45.03;23.60;
12542;PMS3003;6337;49.556;25.594;2023-02-10T00:46:31;55.92;24.73;
12542;PMS3003;6337;49.556;25.594;2023-02-10T00:49:02;43.70;22.20;
12542;PMS3003;6337;49.556;25.594;2023-02-10T00:51:35;48.78;21.98;
12542;PMS3003;6337;49.556;25.594;2023-02-10T00:54:03;41.08;23.38;
12542;PMS3003;6337;49.556;25.594;2023-02-10T00:56:31;45.47;24.33;
12542;PMS3003;6337;49.556;25.594;2023-02-10T00:58:58;35.60;19.30;
12542;PMS3003;6337;49.556;25.594;2023-02-10T01:01:26;46.63;23.50;
12542;PMS3003;6337;49.556;25.594;2023-02-10T01:03:54;44.60;19.63;
12542;PMS3003;6337;49.556;25.594;2023-02-10T01:06:25;34.50;22.20;
12542;PMS3003;6337;49.556;25.594;2023-02-10T01:08:54;38.08;19.27;
12542;PMS3003;6337;49.556;25.594;2023-02-10T01:11:22;48.20;20.73;
12542;PMS3003;6337;49.556;25.594;2023-02-10T01:13:51;57.88;21.52;
12542;PMS3003;6337;49.556;25.594;2023-02-10T01:16:19;42.08;19.08;
12542;PMS3003;6337;49.556;25.594;2023-02-10T01:18:46;31.60;16.25;
12542;PMS3003;6337;49.556;25.594;2023-02-10T01:21:16;37.40;16.02;
12542;PMS3003;6337;49.556;25.594;2023-02-10T01:23:45;43.45;19.27;
12542;PMS3003;6337;49.556;25.594;2023-02-10T01:26:15;37.45;21.20;
12542;PMS3003;6337;49.556;25.594;2023-02-10T01:28:43;39.45;20.20;
12542;PMS3003;6337;49.556;25.594;2023-02-10T01:31:14;42.28;22.30;
12542;PMS3003;6337;49.556;25.594;2023-02-10T01:33:43;42.38;20.52;
12542;PMS3003;6337;49.556;25.594;2023-02-10T01:36:12;41.25;17.33;
12542;PMS3003;6337;49.556;25.594;2023-02-10T01:38:42;64.55;24.00;
12542;PMS3003;6337;49.556;25.594;2023-02-10T01:41:13;36.97;20.70;
12542;PMS3003;6337;49.556;25.594;2023-02-10T01:43:55;37.03;18.88;
12542;PMS3003;6337;49.556;25.594;2023-02-10T01:46:26;34.55;18.52;
12542;PMS3003;6337;49.556;25.594;2023-02-10T01:48:54;31.00;17.50;
12542;PMS3003;6337;49.556;25.594;2023-02-10T01:51:27;36.10;18.48;
12542;PMS3003;6337;49.556;25.594;2023-02-10T01:53:58;42.30;18.27;
12542;PMS3003;6337;49.556;25.594;2023-02-10T01:56:27;37.17;19.73;
12542;PMS3003;6337;49.556;25.594;2023-02-10T01:58:55;49.05;21.38;
12542;PMS3003;6337;49.556;25.594;2023-02-10T02:01:23;51.85;24.45;
12542;PMS3003;6337;49.556;25.594;2023-02-10T02:03:52;39.78;22.23;
12542;PMS3003;6337;49.556;25.594;2023-02-10T02:06:21;56.78;21.05;
12542;PMS3003;6337;49.556;25.594;2023-02-10T02:08:49;44.13;23.55;
12542;PMS3003;6337;49.556;25.594;2023-02-10T02:11:21;43.08;20.50;
12542;PMS3003;6337;49.556;25.594;2023-02-10T02:13:59;42.88;21.20;
12542;PMS3003;6337;49.556;25.594;2023-02-10T02:16:32;39.72;21.15;
12542;PMS3003;6337;49.556;25.594;2023-02-10T02:19:05;46.67;22.02;
12542;PMS3003;6337;49.556;25.594;2023-02-10T02:21:46;41.95;22.85;
12542;PMS3003;6337;49.556;25.594;2023-02-10T02:24:41;47.10;23.55;
12542;PMS3003;6337;49.556;25.594;2023-02-10T02:27:20;40.28;20.45;
12542;PMS3003;6337;49.556;25.594;2023-02-10T02:32:40;45.15;23.80;
12542;PMS3003;6337;49.556;25.594;2023-02-10T02:35:09;49.58;24.42;
12542;PMS3003;6337;49.556;25.594;2023-02-10T02:37:40;43.42;23.73;
12542;PMS3003;6337;49.556;25.594;2023-02-10T02:40:09;54.95;23.73;
12542;PMS3003;6337;49.556;25.594;2023-02-10T02:42:36;45.28;22.42;
12542;PMS3003;6337;49.556;25.594;2023-02-10T02:45:05;54.83;27.75;
12542;PMS3003;6337;49.556;25.594;2023-02-10T02:47:44;57.10;23.95;
12542;PMS3003;6337;49.556;25.594;2023-02-10T02:50:19;44.67;23.98;
12542;PMS3003;6337;49.556;25.594;2023-02-10T02:52:50;48.22;24.38;
12542;PMS3003;6337;49.556;25.594;2023-02-10T02:55:21;57.45;26.23;
12542;PMS3003;6337;49.556;25.594;2023-02-10T02:57:53;54.33;27.08;
12542;PMS3003;6337;49.556;25.594;2023-02-10T03:00:26;49.00;24.40;
12542;PMS3003;6337;49.556;25.594;2023-02-10T03:02:56;53.42;24.20;
12542;PMS3003;6337;49.556;25.594;2023-02-10T03:05:31;64.68;26.00;
12542;PMS3003;6337;49.556;25.594;2023-02-10T03:08:01;56.95;26.08;
12542;PMS3003;6337;49.556;25.594;2023-02-10T03:10:31;67.43;29.00;
12542;PMS3003;6337;49.556;25.594;2023-02-10T03:13:02;64.10;27.58;
12542;PMS3003;6337;49.556;25.594;2023-02-10T03:15:33;66.00;27.83;
12542;PMS3003;6337;49.556;25.594;2023-02-10T03:18:02;61.60;28.80;
12542;PMS3003;6337;49.556;25.594;2023-02-10T03:20:31;93.28;30.90;
12542;PMS3003;6337;49.556;25.594;2023-02-10T03:22:58;64.20;30.45;
12542;PMS3003;6337;49.556;25.594;2023-02-10T03:25:27;67.50;28.77;
12542;PMS3003;6337;49.556;25.594;2023-02-10T03:27:55;73.25;29.33;
12542;PMS3003;6337;49.556;25.594;2023-02-10T03:30:23;62.60;26.63;
12542;PMS3003;6337;49.556;25.594;2023-02-10T03:32:50;55.08;27.23;
12542;PMS3003;6337;49.556;25.594;2023-02-10T03:35:20;59.00;28.10;
12542;PMS3003;6337;49.556;25.594;2023-02-10T03:37:48;76.88;30.08;
12542;PMS3003;6337;49.556;25.594;2023-02-10T03:40:16;57.85;28.85;
12542;PMS3003;6337;49.556;25.594;2023-02-10T03:42:46;50.45;25.50;
12542;PMS3003;6337;49.556;25.594;2023-02-10T03:45:15;46.97;23.88;
12542;PMS3003;6337;49.556;25.594;2023-02-10T03:47:42;49.75;22.90;
12542;PMS3003;6337;49.556;25.594;2023-02-10T03:50:12;67.90;31.35;
12542;PMS3003;6337;49.556;25.594;2023-02-10T03:52:43;90.53;40.15;
12542;PMS3003;6337;49.556;25.594;2023-02-10T03:55:12;106.55;38.03;
12542;PMS3003;6337;49.556;25.594;2023-02-10T03:57:42;70.93;32.10;
12542;PMS3003;6337;49.556;25.594;2023-02-10T04:00:11;49.83;27.00;
12542;PMS3003;6337;49.556;25.594;2023-02-10T04:02:42;53.42;23.85;
12542;PMS3003;6337;49.556;25.594;2023-02-10T04:05:10;45.33;21.10;
12542;PMS3003;6337;49.556;25.594;2023-02-10T04:07:38;57.20;23.25;
12542;PMS3003;6337;49.556;25.594;2023-02-10T04:10:10;43.70;24.38;
12542;PMS3003;6337;49.556;25.594;2023-02-10T04:12:38;45.00;21.85;
12542;PMS3003;6337;49.556;25.594;2023-02-10T04:15:06;42.95;21.17;
12542;PMS3003;6337;49.556;25.594;2023-02-10T04:17:35;54.50;23.40;
12542;PMS3003;6337;49.556;25.594;2023-02-10T04:20:03;49.65;25.80;
12542;PMS3003;6337;49.556;25.594;2023-02-10T04:22:31;50.70;24.00;
12542;PMS3003;6337;49.556;25.594;2023-02-10T04:25:01;47.85;24.55;
12542;PMS3003;6337;49.556;25.594;2023-02-10T04:27:30;56.13;25.85;
12542;PMS3003;6337;49.556;25.594;2023-02-10T04:29:57;64.28;27.45;
12542;PMS3003;6337;49.556;25.594;2023-02-10T04:32:25;58.28;23.90;
12542;PMS3003;6337;49.556;25.594;2023-02-10T04:34:53;68.70;33.60;
12542;PMS3003;6337;49.556;25.594;2023-02-10T04:37:20;74.28;33.20;
12542;PMS3003;6337;49.556;25.594;2023-02-10T07:43:54;44.38;18.95;
12542;PMS3003;6337;49.556;25.594;2023-02-10T07:46:28;40.63;22.25;
12542;PMS3003;6337;49.556;25.594;2023-02-10T07:51:39;29.63;16.80;
12542;PMS3003;6337;49.556;25.594;2023-02-10T07:54:31;33.58;19.65;
12542;PMS3003;6337;49.556;25.594;2023-02-10T08:08:16;47.97;21.15;
12542;PMS3003;6337;49.556;25.594;2023-02-10T08:10:51;36.13;18.90;
12542;PMS3003;6337;49.556;25.594;2023-02-10T08:13:41;31.58;18.38;
12542;PMS3003;6337;49.556;25.594;2023-02-10T08:16:18;39.10;18.55;
12542;PMS3003;6337;49.556;25.594;2023-02-10T08:19:01;36.08;18.38;
12542;PMS3003;6337;49.556;25.594;2023-02-10T08:32:08;19.27;9.38;
12542;PMS3003;6337;49.556;25.594;2023-02-10T08:34:46;15.88;8.25;
12542;PMS3003;6337;49.556;25.594;2023-02-10T08:37:17;15.73;8.57;
12542;PMS3003;6337;49.556;25.594;2023-02-10T08:39:59;18.27;8.40;
12542;PMS3003;6337;49.556;25.594;2023-02-10T08:42:40;17.38;9.15;
12542;PMS3003;6337;49.556;25.594;2023-02-10T09:04:00;14.63;7.80;
12542;PMS3003;6337;49.556;25.594;2023-02-10T09:06:31;15.45;7.63;
12542;PMS3003;6337;49.556;25.594;2023-02-10T09:09:15;11.43;8.30;
12542;PMS3003;6337;49.556;25.594;2023-02-10T09:11:46;16.40;9.10;
12542;PMS3003;6337;49.556;25.594;2023-02-10T09:14:15;21.75;11.50;
12542;PMS3003;6337;49.556;25.594;2023-02-10T09:16:57;16.10;9.60;
12542;PMS3003;6337;49.556;25.594;2023-02-10T09:22:50;23.00;9.45;
12542;PMS3003;6337;49.556;25.594;2023-02-10T09:25:54;11.27;7.38;
12542;PMS3003;6337;49.556;25.594;2023-02-10T09:28:41;12.30;7.38;
12542;PMS3003;6337;49.556;25.594;2023-02-10T09:31:13;14.88;8.90;
12542;PMS3003;6337;49.556;25.594;2023-02-10T09:33:54;16.50;7.18;
12542;PMS3003;6337;49.556;25.594;2023-02-10T09:36:36;17.40;7.88;
12542;PMS3003;6337;49.556;25.594;2023-02-10T09:39:20;23.50;8.50;
12542;PMS3003;6337;49.556;25.594;2023-02-10T09:41:52;16.55;9.60;
12542;PMS3003;6337;49.556;25.594;2023-02-10T09:44:34;15.10;8.60;
12542;PMS3003;6337;49.556;25.594;2023-02-10T09:47:10;44.63;10.40;
12542;PMS3003;6337;49.556;25.594;2023-02-10T09:50:14;18.70;8.88;
12542;PMS3003;6337;49.556;25.594;2023-02-10T09:53:26;14.43;8.00;
12542;PMS3003;6337;49.556;25.594;2023-02-10T09:56:17;35.88;9.50;
12542;PMS3003;6337;49.556;25.594;2023-02-10T09:58:54;18.98;9.88;
12542;PMS3003;6337;49.556;25.594;2023-02-10T10:01:29;16.15;8.05;
12542;PMS3003;6337;49.556;25.594;2023-02-10T10:04:03;19.23;8.73;
12542;PMS3003;6337;49.556;25.594;2023-02-10T10:06:37;18.77;9.95;
12542;PMS3003;6337;49.556;25.594;2023-02-10T10:09:13;11.20;7.70;
12542;PMS3003;6337;49.556;25.594;2023-02-10T10:12:01;17.20;8.05;
12542;PMS3003;6337;49.556;25.594;2023-02-10T10:14:42;11.07;8.30;
12542;PMS3003;6337;49.556;25.594;2023-02-10T10:17:15;13.80;8.25;
12542;PMS3003;6337;49.556;25.594;2023-02-10T10:20:00;14.35;7.38;
12542;PMS3003;6337;49.556;25.594;2023-02-10T10:22:42;12.35;7.07;
12542;PMS3003;6337;49.556;25.594;2023-02-10T10:25:21;20.45;9.10;
12542;PMS3003;6337;49.556;25.594;2023-02-10T10:28:09;10.55;7.15;
12542;PMS3003;6337;49.556;25.594;2023-02-10T10:30:58;11.02;6.55;
12542;PMS3003;6337;49.556;25.594;2023-02-10T10:33:33;13.88;7.22;
12542;PMS3003;6337;49.556;25.594;2023-02-10T10:36:08;13.07;8.32;
12542;PMS3003;6337;49.556;25.594;2023-02-10T10:38:42;24.27;9.63;
12542;PMS3003;6337;49.556;25.594;2023-02-10T10:41:13;9.60;7.93;
12542;PMS3003;6337;49.556;25.594;2023-02-10T10:43:46;13.45;8.70;
12542;PMS3003;6337;49.556;25.594;2023-02-10T10:46:18;14.63;6.40;
12542;PMS3003;6337;49.556;25.594;2023-02-10T10:48:49;14.93;10.25;
12542;PMS3003;6337;49.556;25.594;2023-02-10T10:51:18;14.45;8.68;
12542;PMS3003;6337;49.556;25.594;2023-02-10T10:54:03;25.13;9.38;
12542;PMS3003;6337;49.556;25.594;2023-02-10T10:56:44;15.57;7.93;
12542;PMS3003;6337;49.556;25.594;2023-02-10T10:59:20;12.27;7.82;
12542;PMS3003;6337;49.556;25.594;2023-02-10T11:01:52;18.38;8.23;
12542;PMS3003;6337;49.556;25.594;2023-02-10T11:04:20;11.35;8.38;
12542;PMS3003;6337;49.556;25.594;2023-02-10T11:07:08;12.82;6.93;
12542;PMS3003;6337;49.556;25.594;2023-02-10T11:09:39;13.90;7.70;
12542;PMS3003;6337;49.556;25.594;2023-02-10T11:12:14;19.05;9.10;
12542;PMS3003;6337;49.556;25.594;2023-02-10T11:14:50;16.58;7.60;
12542;PMS3003;6337;49.556;25.594;2023-02-10T11:17:25;12.02;6.90;
12542;PMS3003;6337;49.556;25.594;2023-02-10T11:20:21;14.75;6.60;
12542;PMS3003;6337;49.556;25.594;2023-02-10T11:23:00;12.95;4.75;
12542;PMS3003;6337;49.556;25.594;2023-02-10T11:25:37;8.82;5.75;
12542;PMS3003;6337;49.556;25.594;2023-02-10T11:28:14;10.27;8.15;
12542;PMS3003;6337;49.556;25.594;2023-02-10T11:30:55;13.70;7.80;
12542;PMS3003;6337;49.556;25.594;2023-02-10T11:33:29;12.75;7.18;
12542;PMS3003;6337;49.556;25.594;2023-02-10T11:36:04;22.42;9.43;
12542;PMS3003;6337;49.556;25.594;2023-02-10T11:38:43;13.07;9.60;
12542;PMS3003;6337;49.556;25.594;2023-02-10T11:41:12;9.37;7.03;
12542;PMS3003;6337;49.556;25.594;2023-02-10T11:43:45;11.53;7.90;
12542;PMS3003;6337;49.556;25.594;2023-02-10T11:46:20;15.13;9.10;
12542;PMS3003;6337;49.556;25.594;2023-02-10T11:48:53;15.57;8.10;
12542;PMS3003;6337;49.556;25.594;2023-02-10T11:51:24;11.20;7.67;
12542;PMS3003;6337;49.556;25.594;2023-02-10T11:53:52;10.07;7.32;
12542;PMS3003;6337;49.556;25.594;2023-02-10T11:56:24;11.43;7.88;
12542;PMS3003;6337;49.556;25.594;2023-02-10T11:59:13;10.48;7.35;
12542;PMS3003;6337;49.556;25.594;2023-02-10T12:04:44;11.38;6.88;
12542;PMS3003;6337;49.556;25.594;2023-02-10T12:07:51;13.30;8.82;
12542;PMS3003;6337;49.556;25.594;2023-02-10T12:10:27;14.20;8.38;
12542;PMS3003;6337;49.556;25.594;2023-02-10T12:13:00;11.85;7.80;
12542;PMS3003;6337;49.556;25.594;2023-02-10T12:15:35;19.10;9.23;
12542;PMS3003;6337;49.556;25.594;2023-02-10T12:18:16;18.20;8.13;
12542;PMS3003;6337;49.556;25.594;2023-02-10T12:21:02;14.00;7.75;
12542;PMS3003;6337;49.556;25.594;2023-02-10T12:23:49;14.82;8.98;
12542;PMS3003;6337;49.556;25.594;2023-02-10T12:26:39;18.27;8.73;
12542;PMS3003;6337;49.556;25.594;2023-02-10T12:29:21;10.77;7.53;
12542;PMS3003;6337;49.556;25.594;2023-02-10T12:32:03;22.23;9.63;
12542;PMS3003;6337;49.556;25.594;2023-02-10T12:37:46;10.95;6.97;
12542;PMS3003;6337;49.556;25.594;2023-02-10T12:40:26;13.32;9.02;
12542;PMS3003;6337;49.556;25.594;2023-02-10T12:43:19;11.18;8.23;
12542;PMS3003;6337;49.556;25.594;2023-02-10T12:46:08;13.35;8.25;
12542;PMS3003;6337;49.556;25.594;2023-02-10T12:49:05;19.45;8.82;
12542;PMS3003;6337;49.556;25.594;2023-02-10T12:54:33;17.17;8.40;
12542;PMS3003;6337;49.556;25.594;2023-02-10T12:57:08;14.20;8.52;
12542;PMS3003;6337;49.556;25.594;2023-02-10T12:59:43;15.27;8.35;
12542;PMS3003;6337;49.556;25.594;2023-02-10T13:02:13;15.93;8.80;
12542;PMS3003;6337;49.556;25.594;2023-02-10T13:04:44;17.70;9.13;
12542;PMS3003;6337;49.556;25.594;2023-02-10T13:07:19;24.05;10.30;
12542;PMS3003;6337;49.556;25.594;2023-02-10T13:09:56;25.33;9.80;
12542;PMS3003;6337;49.556;25.594;2023-02-10T13:12:38;16.05;9.27;
12542;PMS3003;6337;49.556;25.594;2023-02-10T13:15:15;17.10;8.75;
12542;PMS3003;6337;49.556;25.594;2023-02-10T13:17:54;11.82;8.15;
12542;PMS3003;6337;49.556;25.594;2023-02-10T13:20:24;15.02;8.68;
12542;PMS3003;6337;49.556;25.594;2023-02-10T13:23:02;20.40;10.88;
12542;PMS3003;6337;49.556;25.594;2023-02-10T13:25:42;24.63;10.68;
12542;PMS3003;6337;49.556;25.594;2023-02-10T13:28:20;21.73;10.15;
12542;PMS3003;6337;49.556;25.594;2023-02-10T13:30:55;16.92;9.32;
12542;PMS3003;6337;49.556;25.594;2023-02-10T13:33:30;18.33;10.15;
12542;PMS3003;6337;49.556;25.594;2023-02-10T13:36:04;18.42;10.80;
12542;PMS3003;6337;49.556;25.594;2023-02-10T13:44:37;15.55;9.35;
12542;PMS3003;6337;49.556;25.594;2023-02-10T13:47:18;16.17;10.15;
12542;PMS3003;6337;49.556;25.594;2023-02-10T13:49:55;16.25;8.88;
12542;PMS3003;6337;49.556;25.594;2023-02-10T13:52:26;18.00;10.77;
12542;PMS3003;6337;49.556;25.594;2023-02-10T13:55:01;19.83;10.02;
12542;PMS3003;6337;49.556;25.594;2023-02-10T13:57:35;21.85;10.48;
12542;PMS3003;6337;49.556;25.594;2023-02-10T14:00:11;22.40;12.07;
12542;PMS3003;6337;49.556;25.594;2023-02-10T14:02:59;21.58;13.45;
12542;PMS3003;6337;49.556;25.594;2023-02-10T14:05:31;19.77;11.02;
12542;PMS3003;6337;49.556;25.594;2023-02-10T14:10:57;22.50;10.38;
12542;PMS3003;6337;49.556;25.594;2023-02-10T14:13:27;25.90;10.85;
12542;PMS3003;6337;49.556;25.594;2023-02-10T14:16:03;13.40;9.07;
12542;PMS3003;6337;49.556;25.594;2023-02-10T14:18:33;13.25;9.68;
12542;PMS3003;6337;49.556;25.594;2023-02-10T14:21:13;16.58;11.32;
12542;PMS3003;6337;49.556;25.594;2023-02-10T14:23:43;20.65;10.95;
12542;PMS3003;6337;49.556;25.594;2023-02-10T14:26:23;15.27;9.13;
12542;PMS3003;6337;49.556;25.594;2023-02-10T14:28:58;18.08;11.20;
12542;PMS3003;6337;49.556;25.594;2023-02-10T19:05:09;21.40;11.43;
12542;PMS3003;6337;49.556;25.594;2023-02-10T19:07:38;19.50;12.65;
12542;PMS3003;6337;49.556;25.594;2023-02-10T19:10:08;20.90;12.95;
12542;PMS3003;6337;49.556;25.594;2023-02-10T19:12:36;25.50;13.27;
12542;PMS3003;6337;49.556;25.594;2023-02-10T19:15:04;26.38;12.45;
12542;PMS3003;6337;49.556;25.594;2023-02-10T19:20:31;21.23;13.15;
12542;PMS3003;6337;49.556;25.594;2023-02-10T19:23:11;23.60;13.02;
12542;PMS3003;6337;49.556;25.594;2023-02-10T19:25:41;18.35;12.35;
12542;PMS3003;6337;49.556;25.594;2023-02-10T19:28:09;18.98;12.60;
12542;PMS3003;6337;49.556;25.594;2023-02-10T19:30:40;14.02;10.32;
12542;PMS3003;6337;49.556;25.594;2023-02-10T19:33:14;22.00;11.75;
12542;PMS3003;6337;49.556;25.594;2023-02-10T19:35:58;20.67;11.75;
12542;PMS3003;6337;49.556;25.594;2023-02-10T19:38:26;19.55;11.52;
12542;PMS3003;6337;49.556;25.594;2023-02-10T19:41:02;28.17;13.32;
12542;PMS3003;6337;49.556;25.594;2023-02-10T19:43:32;20.35;12.90;
12542;PMS3003;6337;49.556;25.594;2023-02-10T19:46:00;21.83;11.68;
12542;PMS3003;6337;49.556;25.594;2023-02-10T19:48:30;22.23;12.13;
12542;PMS3003;6337;49.556;25.594;2023-02-10T19:51:13;21.88;11.23;
12542;PMS3003;6337;49.556;25.594;2023-02-10T19:54:00;21.45;12.25;
12542;PMS3003;6337;49.556;25.594;2023-02-10T19:56:32;20.35;10.70;
12542;PMS3003;6337;49.556;25.594;2023-02-10T19:59:03;23.75;12.40;
12542;PMS3003;6337;49.556;25.594;2023-02-10T20:01:35;19.45;11.52;
12542;PMS3003;6337;49.556;25.594;2023-02-10T20:04:05;21.75;13.27;
12542;PMS3003;6337;49.556;25.594;2023-02-10T20:06:37;28.38;11.65;
12542;PMS3003;6337;49.556;25.594;2023-02-10T20:09:05;27.52;13.50;
12542;PMS3003;6337;49.556;25.594;2023-02-10T20:11:35;19.38;11.95;
12542;PMS3003;6337;49.556;25.594;2023-02-10T20:14:05;21.60;11.70;
12542;PMS3003;6337;49.556;25.594;2023-02-10T20:16:35;19.45;12.63;
12542;PMS3003;6337;49.556;25.594;2023-02-10T20:19:08;20.48;11.75;
12542;PMS3003;6337;49.556;25.594;2023-02-10T20:21:50;23.02;12.45;
12542;PMS3003;6337;49.556;25.594;2023-02-10T20:24:18;22.08;11.70;
12542;PMS3003;6337;49.556;25.594;2023-02-10T20:26:46;23.88;12.88;
12542;PMS3003;6337;49.556;25.594;2023-02-10T20:29:14;18.42;10.63;
12542;PMS3003;6337;49.556;25.594;2023-02-10T20:31:42;21.58;11.60;
12542;PMS3003;6337;49.556;25.594;2023-02-10T20:34:10;26.77;14.35;
12542;PMS3003;6337;49.556;25.594;2023-02-10T20:36:39;17.83;12.88;
12542;PMS3003;6337;49.556;25.594;2023-02-10T20:39:12;20.55;12.27;
12542;PMS3003;6337;49.556;25.594;2023-02-10T20:41:43;25.00;14.27;
12542;PMS3003;6337;49.556;25.594;2023-02-10T20:44:13;21.25;12.85;
12542;PMS3003;6337;49.556;25.594;2023-02-10T20:46:46;24.63;12.07;
12542;PMS3003;6337;49.556;25.594;2023-02-10T20:49:23;20.70;11.48;
12542;PMS3003;6337;49.556;25.594;2023-02-10T20:51:50;26.67;15.70;
12542;PMS3003;6337;49.556;25.594;2023-02-10T20:54:25;30.40;14.93;
12542;PMS3003;6337;49.556;25.594;2023-02-10T20:57:06;21.10;13.05;
12542;PMS3003;6337;49.556;25.594;2023-02-10T20:59:34;34.13;14.25;
12542;PMS3003;6337;49.556;25.594;2023-02-10T21:02:01;27.20;12.70;
12542;PMS3003;6337;49.556;25.594;2023-02-10T21:04:30;33.00;14.32;
12542;PMS3003;6337;49.556;25.594;2023-02-10T21:06:58;25.80;14.98;
12542;PMS3003;6337;49.556;25.594;2023-02-10T21:09:28;30.40;14.27;
12542;PMS3003;6337;49.556;25.594;2023-02-10T21:11:57;40.10;15.02;
12542;PMS3003;6337;49.556;25.594;2023-02-10T21:14:26;28.40;15.90;
12542;PMS3003;6337;49.556;25.594;2023-02-10T21:16:54;27.75;14.02;
12542;PMS3003;6337;49.556;25.594;2023-02-10T21:19:22;30.33;13.57;
12542;PMS3003;6337;49.556;25.594;2023-02-10T21:21:50;24.58;13.50;
12542;PMS3003;6337;49.556;25.594;2023-02-10T21:24:21;25.35;14.43;
12542;PMS3003;6337;49.556;25.594;2023-02-10T21:26:52;21.52;13.68;
12542;PMS3003;6337;49.556;25.594;2023-02-10T21:29:21;19.27;11.75;
12542;PMS3003;6337;49.556;25.594;2023-02-10T21:31:50;25.73;14.57;
12542;PMS3003;6337;49.556;25.594;2023-02-10T21:34:18;22.48;13.57;
12542;PMS3003;6337;49.556;25.594;2023-02-10T21:36:46;35.08;15.13;
12542;PMS3003;6337;49.556;25.594;2023-02-10T21:39:16;27.42;14.38;
12542;PMS3003;6337;49.556;25.594;2023-02-10T21:41:48;24.13;12.48;
12542;PMS3003;6337;49.556;25.594;2023-02-10T21:44:20;22.27;13.02;
12542;PMS3003;6337;49.556;25.594;2023-02-10T21:46:51;32.13;14.55;
12542;PMS3003;6337;49.556;25.594;2023-02-10T21:49:19;32.33;14.80;
12542;PMS3003;6337;49.556;25.594;2023-02-10T21:51:48;22.58;14.40;
12542;PMS3003;6337;49.556;25.594;2023-02-10T21:54:17;24.38;14.57;
12542;PMS3003;6337;49.556;25.594;2023-02-10T21:57:03;24.08;13.70;
12542;PMS3003;6337;49.556;25.594;2023-02-10T21:59:35;30.58;15.15;
12542;PMS3003;6337;49.556;25.594;2023-02-10T22:02:04;23.33;14.07;
12542;PMS3003;6337;49.556;25.594;2023-02-10T22:04:45;24.17;13.38;
12542;PMS3003;6337;49.556;25.594;2023-02-10T22:07:13;26.20;13.73;
12542;PMS3003;6337;49.556;25.594;2023-02-10T22:09:41;34.85;19.98;
12542;PMS3003;6337;49.556;25.594;2023-02-10T22:12:10;26.33;15.95;
12542;PMS3003;6337;49.556;25.594;2023-02-10T22:14:41;25.15;15.48;
12542;PMS3003;6337;49.556;25.594;2023-02-10T22:17:09;26.83;16.25;
12542;PMS3003;6337;49.556;25.594;2023-02-10T22:19:37;30.42;15.25;
12542;PMS3003;6337;49.556;25.594;2023-02-10T22:22:06;41.67;15.80;
12542;PMS3003;6337;49.556;25.594;2023-02-10T22:24:35;37.20;15.93;
12542;PMS3003;6337;49.556;25.594;2023-02-10T22:27:04;48.67;19.35;
12542;PMS3003;6337;49.556;25.594;2023-02-10T22:29:32;62.17;19.88;
12542;PMS3003;6337;49.556;25.594;2023-02-10T22:32:01;60.15;22.17;
12542;PMS3003;6337;49.556;25.594;2023-02-10T22:34:30;47.83;20.17;
12542;PMS3003;6337;49.556;25.594;2023-02-10T22:36:58;53.10;19.67;
12542;PMS3003;6337;49.556;25.594;2023-02-10T22:39:26;58.80;18.00;
12542;PMS3003;6337;49.556;25.594;2023-02-10T22:41:54;43.70;19.77;
12542;PMS3003;6337;49.556;25.594;2023-02-10T22:44:24;36.45;17.35;
12542;PMS3003;6337;49.556;25.594;2023-02-10T22:46:52;39.47;18.25;
12542;PMS3003;6337;49.556;25.594;2023-02-10T22:49:22;40.20;17.42;
12542;PMS3003;6337;49.556;25.594;2023-02-10T22:51:50;35.03;16.60;
12542;PMS3003;6337;49.556;25.594;2023-02-10T22:54:18;32.58;16.08;
12542;PMS3003;6337;49.556;25.594;2023-02-10T22:56:47;33.78;15.80;
12542;PMS3003;6337;49.556;25.594;2023-02-10T22:59:14;39.85;17.42;
12542;PMS3003;6337;49.556;25.594;2023-02-10T23:01:42;32.75;15.65;
12542;PMS3003;6337;49.556;25.594;2023-02-10T23:04:11;41.60;14.82;
12542;PMS3003;6337;49.556;25.594;2023-02-10T23:06:40;34.60;17.10;
12542;PMS3003;6337;49.556;25.594;2023-02-10T23:09:10;20.17;12.02;
12542;PMS3003;6337;49.556;25.594;2023-02-10T23:11:40;24.52;15.43;
12542;PMS3003;6337;49.556;25.594;2023-02-10T23:14:16;27.65;16.48;
12542;PMS3003;6337;49.556;25.594;2023-02-10T23:16:46;35.75;14.40;
12542;PMS3003;6337;49.556;25.594;2023-02-10T23:19:15;29.30;16.05;
12542;PMS3003;6337;49.556;25.594;2023-02-10T23:21:45;31.20;16.27;
12542;PMS3003;6337;49.556;25.594;2023-02-10T23:24:13;28.00;13.77;
12542;PMS3003;6337;49.556;25.594;2023-02-10T23:26:40;27.27;14.77;
12542;PMS3003;6337;49.556;25.594;2023-02-10T23:29:10;42.78;15.23;
12542;PMS3003;6337;49.556;25.594;2023-02-10T23:31:41;26.27;13.05;
12542;PMS3003;6337;49.556;25.594;2023-02-10T23:34:09;27.17;15.30;
12542;PMS3003;6337;49.556;25.594;2023-02-10T23:36:39;24.60;15.63;
12542;PMS3003;6337;49.556;25.594;2023-02-10T23:39:09;30.65;16.17;
12542;PMS3003;6337;49.556;25.594;2023-02-10T23:41:37;24.42;14.73;
